Time;durP1;ratioP1;P1;durP2;ratioP2;P2;SDS_P1;SDS_P2;PMS_P1;PMS_P2;Temp;Humidity;BMP_temperature;BMP_pressure;BME280_temperature;BME280_humidity;BME280_pressure;Samples;Min_cycle;Max_cycle;Signal;HPM_P1;HPM_P2
2021/12/09 00:02:14;;;;;;;159.60;67.73;;;;;;;;;;4427640;32;20228;-56
2021/12/09 00:04:41;;;;;;;160.90;64.67;;;;;;;;;;4434059;32;20220;-55
2021/12/09 00:07:06;;;;;;;136.63;63.47;;;;;;;;;;4416954;32;20623;-54
2021/12/09 00:09:32;;;;;;;129.87;57.97;;;;;;;;;;4418772;32;20290;-55
2021/12/09 00:11:58;;;;;;;132.27;60.67;;;;;;;;;;4418887;32;20268;-56
2021/12/09 00:14:27;;;;;;;141.97;60.17;;;;;;;;;;4424510;32;20237;-57
2021/12/09 00:16:54;;;;;;;124.63;58.43;;;;;;;;;;4433997;32;20233;-55
2021/12/09 00:19:21;;;;;;;114.93;56.47;;;;;;;;;;4433061;32;20244;-56
2021/12/09 00:21:46;;;;;;;154.57;53.80;;;;;;;;;;4434104;32;20252;-56
2021/12/09 00:24:12;;;;;;;124.53;53.07;;;;;;;;;;4434042;32;20433;-56
2021/12/09 00:26:38;;;;;;;112.70;51.20;;;;;;;;;;4433451;32;20293;-56
2021/12/09 00:29:05;;;;;;;113.50;52.77;;;;;;;;;;4434041;32;20240;-55
2021/12/09 00:31:31;;;;;;;127.27;52.37;;;;;;;;;;4433248;32;20295;-56
2021/12/09 00:33:58;;;;;;;124.27;54.77;;;;;;;;;;4433756;32;20272;-56
2021/12/09 00:36:27;;;;;;;120.43;53.83;;;;;;;;;;4433970;32;20252;-56
2021/12/09 00:38:57;;;;;;;135.13;56.00;;;;;;;;;;4420387;32;20266;-56
2021/12/09 00:41:23;;;;;;;122.57;55.47;;;;;;;;;;4419762;32;20558;-55
2021/12/09 00:43:49;;;;;;;127.47;55.97;;;;;;;;;;4433655;32;20336;-57
2021/12/09 00:46:15;;;;;;;106.73;51.10;;;;;;;;;;4434160;32;20595;-56
2021/12/09 00:48:41;;;;;;;101.73;45.27;;;;;;;;;;4433882;32;20703;-56
2021/12/09 00:51:07;;;;;;;123.60;53.57;;;;;;;;;;4433853;32;20543;-55
2021/12/09 00:53:34;;;;;;;128.10;58.20;;;;;;;;;;4433742;32;20420;-55
2021/12/09 00:56:00;;;;;;;142.60;64.17;;;;;;;;;;4433970;32;20233;-56
2021/12/09 00:58:25;;;;;;;142.00;66.13;;;;;;;;;;4433378;32;20227;-55
2021/12/09 01:00:52;;;;;;;123.00;57.33;;;;;;;;;;4433807;32;20292;-55
2021/12/09 01:03:17;;;;;;;125.30;53.77;;;;;;;;;;4433688;32;20262;-55
2021/12/09 01:05:46;;;;;;;111.80;53.30;;;;;;;;;;4425976;32;20230;-57
2021/12/09 01:08:12;;;;;;;116.33;52.40;;;;;;;;;;4428709;32;20550;-56
2021/12/09 01:10:39;;;;;;;125.27;54.63;;;;;;;;;;4433693;32;20274;-56
2021/12/09 01:13:04;;;;;;;129.53;61.37;;;;;;;;;;4433344;32;20209;-57
2021/12/09 01:15:30;;;;;;;134.20;57.80;;;;;;;;;;4433610;32;20337;-56
2021/12/09 01:17:56;;;;;;;132.77;56.10;;;;;;;;;;4433676;32;20229;-56
2021/12/09 01:20:25;;;;;;;120.20;56.50;;;;;;;;;;4433747;32;20225;-57
2021/12/09 01:22:53;;;;;;;135.70;56.80;;;;;;;;;;4433162;32;20330;-55
2021/12/09 01:25:20;;;;;;;134.30;60.27;;;;;;;;;;4433676;32;20291;-55
2021/12/09 01:27:48;;;;;;;124.03;55.00;;;;;;;;;;4419089;32;20252;-56
2021/12/09 01:30:17;;;;;;;134.87;52.63;;;;;;;;;;4433698;32;20271;-56
2021/12/09 01:32:53;;;;;;;126.77;52.83;;;;;;;;;;4433302;32;20205;-56
2021/12/09 01:35:33;;;;;;;126.07;57.77;;;;;;;;;;4433612;32;20289;-56
2021/12/09 01:38:07;;;;;;;123.37;55.70;;;;;;;;;;4433359;32;20703;-56
2021/12/09 01:40:33;;;;;;;122.57;55.13;;;;;;;;;;4433467;32;20231;-56
2021/12/09 01:42:59;;;;;;;115.00;53.10;;;;;;;;;;4419290;32;20568;-55
2021/12/09 01:45:25;;;;;;;120.13;52.87;;;;;;;;;;4433178;32;20300;-56
2021/12/09 01:47:51;;;;;;;129.90;53.50;;;;;;;;;;4433643;32;20661;-56
2021/12/09 01:50:17;;;;;;;131.20;57.13;;;;;;;;;;4433607;32;20289;-55
2021/12/09 01:52:43;;;;;;;132.67;58.03;;;;;;;;;;4433105;32;20204;-56
2021/12/09 01:55:10;;;;;;;143.03;61.77;;;;;;;;;;4433438;32;20305;-56
2021/12/09 01:57:36;;;;;;;129.27;62.17;;;;;;;;;;4419105;32;20260;-56
2021/12/09 02:00:05;;;;;;;144.33;65.00;;;;;;;;;;4433706;32;20413;-56
2021/12/09 02:02:31;;;;;;;158.27;68.17;;;;;;;;;;4432642;32;20318;-56
2021/12/09 02:04:56;;;;;;;140.00;60.20;;;;;;;;;;4430318;32;20558;-56
2021/12/09 02:07:22;;;;;;;136.80;67.47;;;;;;;;;;4429701;32;20227;-56
2021/12/09 02:09:47;;;;;;;145.63;63.43;;;;;;;;;;4433293;32;20655;-56
2021/12/09 02:12:13;;;;;;;122.93;62.33;;;;;;;;;;4433228;32;20237;-56
2021/12/09 02:14:42;;;;;;;146.40;65.97;;;;;;;;;;4432949;32;20423;-56
2021/12/09 02:17:08;;;;;;;149.67;66.07;;;;;;;;;;4433223;32;20664;-56
2021/12/09 02:19:34;;;;;;;134.50;61.10;;;;;;;;;;4432958;32;20268;-55
2021/12/09 02:22:00;;;;;;;142.67;66.70;;;;;;;;;;4433206;32;20678;-55
2021/12/09 02:24:26;;;;;;;128.43;64.80;;;;;;;;;;4419111;32;20296;-57
2021/12/09 02:26:51;;;;;;;119.90;60.23;;;;;;;;;;4432849;32;20259;-56
2021/12/09 02:29:18;;;;;;;135.57;63.73;;;;;;;;;;4433391;32;20298;-57
2021/12/09 02:31:45;;;;;;;116.80;58.00;;;;;;;;;;4433233;32;20233;-56
2021/12/09 02:34:11;;;;;;;127.20;56.03;;;;;;;;;;4433302;32;20276;-57
2021/12/09 02:36:39;;;;;;;100.17;45.07;;;;;;;;;;4419020;32;20573;-57
2021/12/09 02:39:08;;;;;;;100.60;48.40;;;;;;;;;;4433110;32;20210;-56
2021/12/09 02:41:35;;;;;;;87.07;45.70;;;;;;;;;;4418455;32;20316;-56
2021/12/09 02:44:04;;;;;;;94.80;45.63;;;;;;;;;;4419043;32;20311;-56
2021/12/09 02:46:37;;;;;;;93.00;46.00;;;;;;;;;;4432804;32;20629;-55
2021/12/09 02:49:11;;;;;;;73.30;40.77;;;;;;;;;;4433590;32;20738;-56
2021/12/09 02:51:38;;;;;;;80.57;38.67;;;;;;;;;;4436079;32;20564;-56
2021/12/09 02:54:06;;;;;;;91.73;38.97;;;;;;;;;;4436095;32;20220;-57
2021/12/09 02:56:33;;;;;;;98.70;40.53;;;;;;;;;;4435492;32;20484;-55
2021/12/09 02:58:58;;;;;;;92.17;39.13;;;;;;;;;;4435350;32;20244;-57
2021/12/09 03:01:30;;;;;;;82.60;38.20;;;;;;;;;;4418966;32;20757;-56
2021/12/09 03:03:59;;;;;;;78.07;38.97;;;;;;;;;;4420431;32;20281;-56
2021/12/09 03:06:33;;;;;;;81.93;36.67;;;;;;;;;;4430599;32;20271;-57
2021/12/09 03:09:03;;;;;;;84.93;37.60;;;;;;;;;;4435657;32;20241;-56
2021/12/09 03:11:30;;;;;;;72.53;34.53;;;;;;;;;;4435660;32;20633;-56
2021/12/09 03:13:55;;;;;;;62.73;30.90;;;;;;;;;;4435746;32;20269;-55
2021/12/09 03:16:22;;;;;;;67.17;29.47;;;;;;;;;;4435660;32;20293;-55
2021/12/09 03:18:57;;;;;;;61.67;28.90;;;;;;;;;;4435316;32;20243;-55
2021/12/09 03:21:37;;;;;;;44.60;23.97;;;;;;;;;;4435669;32;20236;-55
2021/12/09 03:24:05;;;;;;;48.03;22.93;;;;;;;;;;4435779;32;20217;-55
2021/12/09 03:26:34;;;;;;;44.90;23.93;;;;;;;;;;4421336;32;20240;-55
2021/12/09 03:29:04;;;;;;;57.00;26.67;;;;;;;;;;4435204;32;20257;-57
2021/12/09 03:31:30;;;;;;;60.07;28.40;;;;;;;;;;4435117;32;20622;-55
2021/12/09 03:33:56;;;;;;;57.60;27.77;;;;;;;;;;4435522;32;20234;-56
2021/12/09 03:36:25;;;;;;;59.27;30.87;;;;;;;;;;4435179;32;20220;-54
2021/12/09 03:38:51;;;;;;;62.63;30.27;;;;;;;;;;4435425;32;20606;-56
2021/12/09 03:41:17;;;;;;;64.60;31.77;;;;;;;;;;4435330;32;20290;-55
2021/12/09 03:43:43;;;;;;;62.57;31.47;;;;;;;;;;4435187;32;20312;-56
2021/12/09 03:46:09;;;;;;;64.37;33.37;;;;;;;;;;4435073;32;20224;-56
2021/12/09 03:48:34;;;;;;;69.10;34.53;;;;;;;;;;4434710;32;20303;-56
2021/12/09 03:51:00;;;;;;;80.40;35.67;;;;;;;;;;4435092;32;20261;-56
2021/12/09 03:53:25;;;;;;;73.53;35.13;;;;;;;;;;4433210;32;20221;-55
2021/12/09 03:55:51;;;;;;;76.70;36.90;;;;;;;;;;4434940;32;20287;-56
2021/12/09 03:58:18;;;;;;;81.03;33.80;;;;;;;;;;4420912;32;20229;-55
2021/12/09 04:00:44;;;;;;;80.63;35.83;;;;;;;;;;4420668;32;20691;-55
2021/12/09 04:03:10;;;;;;;76.07;36.87;;;;;;;;;;4435004;32;20250;-56
2021/12/09 04:05:36;;;;;;;78.77;36.77;;;;;;;;;;4427386;32;20261;-55
2021/12/09 04:08:03;;;;;;;78.73;36.93;;;;;;;;;;4412910;32;20233;-56
2021/12/09 04:10:31;;;;;;;92.77;38.97;;;;;;;;;;4418997;32;20245;-56
2021/12/09 04:12:57;;;;;;;87.80;37.03;;;;;;;;;;4419415;32;20221;-56
2021/12/09 04:15:23;;;;;;;85.03;39.07;;;;;;;;;;4405510;32;20303;-55
2021/12/09 04:17:49;;;;;;;94.83;39.00;;;;;;;;;;4419097;32;20232;-56
2021/12/09 04:20:14;;;;;;;70.43;34.97;;;;;;;;;;4419173;32;20257;-56
2021/12/09 04:22:43;;;;;;;68.83;37.03;;;;;;;;;;4418888;32;20430;-57
2021/12/09 04:25:08;;;;;;;84.70;39.63;;;;;;;;;;4419122;32;20304;-56
2021/12/09 04:27:34;;;;;;;83.53;38.10;;;;;;;;;;4418848;32;20210;-56
2021/12/09 04:29:59;;;;;;;84.33;36.90;;;;;;;;;;4419176;32;20233;-55
2021/12/09 04:32:25;;;;;;;72.23;33.80;;;;;;;;;;4419068;32;20595;-55
2021/12/09 04:34:53;;;;;;;81.97;38.37;;;;;;;;;;4426080;32;20281;-57
2021/12/09 04:37:20;;;;;;;80.60;39.13;;;;;;;;;;4434174;32;20213;-55
2021/12/09 04:39:45;;;;;;;105.63;40.23;;;;;;;;;;4432705;32;20307;-55
2021/12/09 04:42:11;;;;;;;70.40;33.87;;;;;;;;;;4434159;32;20259;-56
2021/12/09 04:44:36;;;;;;;82.40;35.67;;;;;;;;;;4433734;32;20295;-55
2021/12/09 04:47:02;;;;;;;77.13;35.77;;;;;;;;;;4433967;32;20237;-56
2021/12/09 04:49:27;;;;;;;72.33;35.03;;;;;;;;;;4434296;32;20303;-55
2021/12/09 04:51:53;;;;;;;67.73;31.43;;;;;;;;;;4405811;32;20302;-56
2021/12/09 04:54:19;;;;;;;62.43;29.93;;;;;;;;;;4424707;32;20291;-55
2021/12/09 04:56:44;;;;;;;68.03;30.47;;;;;;;;;;4434020;32;20229;-56
2021/12/09 04:59:10;;;;;;;78.33;34.60;;;;;;;;;;4420354;32;20768;-57
2021/12/09 05:01:36;;;;;;;78.73;39.60;;;;;;;;;;4433894;32;20725;-55
2021/12/09 05:04:03;;;;;;;74.83;35.90;;;;;;;;;;4434116;32;20627;-58
2021/12/09 05:06:29;;;;;;;84.43;35.97;;;;;;;;;;4433104;32;20256;-55
2021/12/09 05:08:57;;;;;;;75.07;34.90;;;;;;;;;;4433999;32;20283;-56
2021/12/09 05:14:05;;;;;;;79.97;34.00;;;;;;;;;;4433835;32;20212;-55
2021/12/09 05:16:32;;;;;;;80.53;36.73;;;;;;;;;;4433627;32;20244;-55
2021/12/09 05:19:01;;;;;;;69.80;32.17;;;;;;;;;;4434095;32;20715;-56
2021/12/09 05:21:29;;;;;;;88.30;38.70;;;;;;;;;;4433694;32;20550;-56
2021/12/09 05:23:56;;;;;;;76.67;36.40;;;;;;;;;;4433646;32;20277;-55
2021/12/09 05:26:26;;;;;;;80.03;37.97;;;;;;;;;;4433755;32;20217;-56
2021/12/09 05:28:55;;;;;;;86.13;33.63;;;;;;;;;;4419777;32;20236;-56
2021/12/09 05:34:05;;;;;;;81.17;35.33;;;;;;;;;;4433825;32;20737;-55
2021/12/09 05:36:31;;;;;;;78.70;34.97;;;;;;;;;;4433580;32;20300;-56
2021/12/09 05:38:57;;;;;;;65.43;33.07;;;;;;;;;;4433405;32;20288;-56
2021/12/09 05:41:23;;;;;;;86.47;36.67;;;;;;;;;;4433623;32;20381;-55
2021/12/09 05:43:48;;;;;;;75.83;34.13;;;;;;;;;;4433660;32;20306;-55
2021/12/09 05:46:14;;;;;;;68.43;31.23;;;;;;;;;;4430833;32;20235;-56
2021/12/09 05:48:41;;;;;;;63.00;30.90;;;;;;;;;;4417778;32;20276;-55
2021/12/09 05:51:08;;;;;;;58.40;29.90;;;;;;;;;;4411395;32;20301;-56
2021/12/09 05:53:33;;;;;;;61.30;30.30;;;;;;;;;;4418133;32;20201;-55
2021/12/09 05:55:59;;;;;;;57.73;28.60;;;;;;;;;;4418013;32;20638;-55
2021/12/09 05:58:24;;;;;;;61.10;24.70;;;;;;;;;;4417778;32;20607;-56
2021/12/09 06:00:53;;;;;;;66.70;29.77;;;;;;;;;;4418285;32;20312;-57
2021/12/09 06:03:20;;;;;;;55.57;26.70;;;;;;;;;;4417795;32;20668;-55
2021/12/09 06:05:46;;;;;;;52.03;26.90;;;;;;;;;;4424852;32;20229;-55
2021/12/09 06:08:11;;;;;;;49.97;26.43;;;;;;;;;;4422459;32;20217;-56
2021/12/09 06:10:37;;;;;;;71.37;33.90;;;;;;;;;;4417773;32;20287;-55
2021/12/09 06:13:04;;;;;;;87.57;41.23;;;;;;;;;;4417417;32;20212;-56
2021/12/09 06:15:29;;;;;;;79.77;40.07;;;;;;;;;;4417406;32;20692;-57
2021/12/09 06:17:55;;;;;;;78.50;38.60;;;;;;;;;;4417465;32;20228;-55
2021/12/09 06:20:21;;;;;;;67.30;34.37;;;;;;;;;;4417890;32;20364;-56
2021/12/09 06:22:46;;;;;;;93.13;38.63;;;;;;;;;;4403590;32;20272;-54
2021/12/09 06:25:17;;;;;;;108.17;45.13;;;;;;;;;;4419851;32;20345;-56
2021/12/09 06:27:43;;;;;;;103.10;44.57;;;;;;;;;;4420800;32;20696;-54
2021/12/09 06:30:09;;;;;;;101.70;43.17;;;;;;;;;;4420551;32;20225;-57
2021/12/09 06:32:35;;;;;;;95.50;41.70;;;;;;;;;;4420549;32;20305;-55
2021/12/09 06:35:00;;;;;;;104.17;53.10;;;;;;;;;;4428835;32;20323;-55
2021/12/09 06:37:26;;;;;;;99.73;43.10;;;;;;;;;;4434130;32;20715;-56
2021/12/09 06:39:51;;;;;;;69.00;37.63;;;;;;;;;;4434331;32;20232;-56
2021/12/09 06:42:17;;;;;;;91.20;36.27;;;;;;;;;;4434456;32;20220;-56
2021/12/09 06:44:44;;;;;;;82.80;38.87;;;;;;;;;;4435645;32;20302;-55
2021/12/09 06:47:09;;;;;;;81.00;39.00;;;;;;;;;;4435866;32;20250;-55
2021/12/09 06:49:35;;;;;;;89.03;40.30;;;;;;;;;;4435508;32;20308;-56
2021/12/09 06:52:00;;;;;;;79.67;39.50;;;;;;;;;;4435736;32;20301;-55
2021/12/09 06:54:26;;;;;;;76.70;38.67;;;;;;;;;;4435395;32;20276;-55
2021/12/09 06:56:51;;;;;;;87.67;41.23;;;;;;;;;;4435388;32;20300;-55
2021/12/09 06:59:17;;;;;;;104.63;45.23;;;;;;;;;;4435919;32;20409;-56
2021/12/09 07:01:43;;;;;;;116.13;48.00;;;;;;;;;;4434343;32;20612;-56
2021/12/09 07:04:08;;;;;;;123.63;55.30;;;;;;;;;;4421694;32;20456;-56
2021/12/09 07:06:34;;;;;;;99.07;46.97;;;;;;;;;;4434481;32;20240;-55
2021/12/09 07:09:02;;;;;;;94.20;46.03;;;;;;;;;;4435720;32;20330;-55
2021/12/09 07:11:29;;;;;;;98.97;45.07;;;;;;;;;;4435056;32;20304;-56
2021/12/09 07:13:55;;;;;;;120.07;50.77;;;;;;;;;;4421313;32;20632;-56
2021/12/09 07:16:20;;;;;;;143.33;62.27;;;;;;;;;;4435238;32;20303;-56
2021/12/09 07:18:46;;;;;;;129.07;53.87;;;;;;;;;;4435292;32;20284;-55
2021/12/09 07:21:11;;;;;;;115.80;50.80;;;;;;;;;;4435260;32;20345;-56
2021/12/09 07:23:37;;;;;;;118.10;52.53;;;;;;;;;;4434932;32;20396;-55
2021/12/09 07:26:03;;;;;;;113.33;49.50;;;;;;;;;;4421211;32;20309;-55
2021/12/09 07:28:28;;;;;;;120.17;57.03;;;;;;;;;;4419351;32;20385;-57
2021/12/09 07:30:54;;;;;;;157.50;73.63;;;;;;;;;;4432689;32;20232;-57
2021/12/09 07:33:20;;;;;;;123.33;56.47;;;;;;;;;;4432955;32;20550;-56
2021/12/09 07:35:46;;;;;;;136.93;58.87;;;;;;;;;;4427240;32;20237;-56
2021/12/09 07:38:12;;;;;;;126.10;58.70;;;;;;;;;;4432941;32;20507;-56
2021/12/09 07:40:38;;;;;;;136.20;63.77;;;;;;;;;;4418169;32;20707;-56
2021/12/09 07:43:04;;;;;;;137.13;58.00;;;;;;;;;;4424413;32;20229;-56
2021/12/09 07:45:30;;;;;;;128.53;58.77;;;;;;;;;;4434910;32;20319;-56
2021/12/09 07:47:56;;;;;;;338.23;179.63;;;;;;;;;;4434926;32;20213;-56
2021/12/09 07:50:24;;;;;;;152.40;74.87;;;;;;;;;;4434711;32;20599;-55
2021/12/09 07:52:51;;;;;;;119.67;54.90;;;;;;;;;;4434643;32;20217;-56
2021/12/09 07:55:18;;;;;;;133.90;63.90;;;;;;;;;;4420680;32;20256;-55
2021/12/09 07:57:44;;;;;;;124.97;56.07;;;;;;;;;;4434341;32;20221;-55
2021/12/09 08:00:13;;;;;;;129.87;56.13;;;;;;;;;;4434664;32;20310;-55
2021/12/09 08:02:40;;;;;;;135.43;59.27;;;;;;;;;;4434274;32;20236;-56
2021/12/09 08:05:06;;;;;;;138.17;61.47;;;;;;;;;;4434324;32;20577;-55
2021/12/09 08:07:32;;;;;;;164.67;70.30;;;;;;;;;;4427178;32;20476;-56
2021/12/09 08:09:58;;;;;;;155.47;66.67;;;;;;;;;;4419369;32;20255;-56
2021/12/09 08:12:23;;;;;;;171.37;72.67;;;;;;;;;;4418848;32;20241;-57
2021/12/09 08:14:48;;;;;;;175.33;72.47;;;;;;;;;;4419246;32;20344;-57
2021/12/09 08:20:00;;;;;;;161.27;73.57;;;;;;;;;;4418910;32;20286;-55
2021/12/09 08:22:26;;;;;;;150.03;68.90;;;;;;;;;;4418481;32;20221;-56
2021/12/09 08:24:55;;;;;;;153.10;71.43;;;;;;;;;;4418754;32;20237;-56
2021/12/09 08:27:21;;;;;;;146.07;66.80;;;;;;;;;;4418555;32;20217;-56
2021/12/09 08:29:47;;;;;;;152.63;69.03;;;;;;;;;;4418610;32;20248;-56
2021/12/09 08:32:12;;;;;;;149.63;64.27;;;;;;;;;;4418543;32;20209;-57
2021/12/09 08:34:38;;;;;;;144.73;66.07;;;;;;;;;;4409764;32;20344;-56
2021/12/09 08:37:03;;;;;;;175.87;74.23;;;;;;;;;;4428171;32;20514;-55
2021/12/09 08:39:29;;;;;;;131.07;62.03;;;;;;;;;;4433946;32;20279;-55
2021/12/09 08:41:54;;;;;;;142.13;66.27;;;;;;;;;;4433822;32;20267;-58
2021/12/09 08:44:20;;;;;;;152.03;72.47;;;;;;;;;;4420570;32;20345;-56
2021/12/09 08:46:45;;;;;;;152.00;72.40;;;;;;;;;;4433185;32;20232;-55
2021/12/09 08:49:10;;;;;;;165.07;73.70;;;;;;;;;;4434180;32;20364;-56
2021/12/09 08:51:37;;;;;;;174.30;75.60;;;;;;;;;;4432291;32;20232;-55
2021/12/09 08:54:04;;;;;;;157.77;75.93;;;;;;;;;;4430683;32;20217;-58
2021/12/09 08:56:29;;;;;;;167.07;75.33;;;;;;;;;;4429535;32;20264;-56
2021/12/09 08:58:55;;;;;;;161.60;75.93;;;;;;;;;;4430081;32;20375;-57
2021/12/09 09:01:20;;;;;;;162.40;76.20;;;;;;;;;;4430023;32;20252;-56
2021/12/09 09:03:46;;;;;;;169.77;75.07;;;;;;;;;;4430972;32;20248;-56
2021/12/09 09:06:12;;;;;;;170.37;80.33;;;;;;;;;;4431750;32;20629;-56
2021/12/09 09:08:37;;;;;;;178.73;75.63;;;;;;;;;;4416532;32;20419;-58
2021/12/09 09:11:03;;;;;;;173.83;80.83;;;;;;;;;;4418387;32;20693;-56
2021/12/09 09:13:29;;;;;;;197.07;95.10;;;;;;;;;;4403699;32;20353;-56
2021/12/09 09:15:54;;;;;;;206.70;94.43;;;;;;;;;;4417976;32;20289;-56
2021/12/09 09:18:22;;;;;;;206.30;96.67;;;;;;;;;;4417941;32;20587;-56
2021/12/09 09:20:48;;;;;;;205.73;94.63;;;;;;;;;;4417332;32;20237;-57
2021/12/09 09:23:17;;;;;;;201.37;92.50;;;;;;;;;;4417444;32;20259;-56
2021/12/09 09:25:43;;;;;;;212.77;95.13;;;;;;;;;;4417901;32;20233;-56
2021/12/09 09:28:10;;;;;;;216.77;94.57;;;;;;;;;;4418026;32;20652;-57
2021/12/09 09:30:39;;;;;;;178.27;84.33;;;;;;;;;;4417691;32;20261;-57
2021/12/09 09:33:12;;;;;;;174.40;78.70;;;;;;;;;;4431659;32;20217;-57
2021/12/09 09:35:39;;;;;;;164.30;72.53;;;;;;;;;;4416170;32;20309;-57
2021/12/09 09:38:05;;;;;;;131.90;64.67;;;;;;;;;;4417722;32;20613;-57
2021/12/09 09:40:41;;;;;;;183.90;81.10;;;;;;;;;;4417821;32;20326;-56
2021/12/09 09:43:27;;;;;;;163.27;74.43;;;;;;;;;;4417951;32;20393;-56
2021/12/09 09:45:55;;;;;;;194.73;87.37;;;;;;;;;;4417668;32;20241;-56
2021/12/09 09:48:21;;;;;;;202.73;97.97;;;;;;;;;;4417606;32;20209;-56
2021/12/09 09:50:46;;;;;;;211.37;99.33;;;;;;;;;;4417415;32;20252;-57
2021/12/09 09:53:12;;;;;;;286.33;115.13;;;;;;;;;;4417844;32;20510;-57
2021/12/09 09:55:38;;;;;;;351.23;145.10;;;;;;;;;;4425063;32;20572;-57
2021/12/09 09:58:04;;;;;;;647.73;322.07;;;;;;;;;;4417566;32;20265;-56
2021/12/09 10:00:30;;;;;;;243.23;105.77;;;;;;;;;;4431607;32;20814;-57
2021/12/09 10:02:59;;;;;;;228.33;98.90;;;;;;;;;;4431356;32;20287;-57
2021/12/09 10:05:35;;;;;;;213.13;99.33;;;;;;;;;;4425370;32;20589;-57
2021/12/09 10:08:02;;;;;;;202.00;96.57;;;;;;;;;;4417925;32;20356;-57
2021/12/09 10:10:27;;;;;;;202.60;93.37;;;;;;;;;;4430368;32;20624;-58
2021/12/09 10:13:04;;;;;;;222.80;100.17;;;;;;;;;;4431347;32;20224;-57
2021/12/09 10:15:49;;;;;;;210.20;91.13;;;;;;;;;;4429159;32;20675;-57
2021/12/09 10:18:34;;;;;;;217.93;96.80;;;;;;;;;;4430333;32;20248;-56
2021/12/09 10:21:00;;;;;;;199.70;95.60;;;;;;;;;;4430322;32;20237;-56
2021/12/09 10:23:31;;;;;;;202.33;96.80;;;;;;;;;;4428950;32;20637;-57
2021/12/09 10:26:12;;;;;;;202.00;98.33;;;;;;;;;;4429967;32;20356;-56
2021/12/09 10:28:40;;;;;;;220.83;96.80;;;;;;;;;;4426622;32;20233;-56
2021/12/09 10:31:14;;;;;;;216.03;100.60;;;;;;;;;;4430210;32;20751;-57
2021/12/09 10:34:02;;;;;;;202.40;98.70;;;;;;;;;;4417255;32;20731;-58
2021/12/09 10:36:46;;;;;;;198.90;101.43;;;;;;;;;;4412377;32;20252;-57
2021/12/09 10:39:18;;;;;;;211.00;102.37;;;;;;;;;;4426331;32;20337;-57
2021/12/09 10:41:44;;;;;;;218.77;101.20;;;;;;;;;;4431171;32;20300;-57
2021/12/09 10:44:11;;;;;;;234.37;110.60;;;;;;;;;;4430960;32;20307;-57
2021/12/09 10:47:04;;;;;;;233.07;105.53;;;;;;;;;;4429888;32;20267;-57
2021/12/09 10:49:35;;;;;;;215.73;100.40;;;;;;;;;;4417730;32;20275;-58
2021/12/09 10:52:37;;;;;;;207.90;97.53;;;;;;;;;;4431944;32;20330;-56
2021/12/09 10:55:20;;;;;;;222.87;98.53;;;;;;;;;;4432129;32;20232;-56
2021/12/09 10:57:53;;;;;;;220.60;105.53;;;;;;;;;;4431980;32;20251;-58
2021/12/09 11:00:26;;;;;;;224.07;104.53;;;;;;;;;;4432079;32;20224;-57
2021/12/09 11:03:11;;;;;;;232.20;105.60;;;;;;;;;;4431549;32;20307;-57
2021/12/09 11:05:45;;;;;;;229.50;111.80;;;;;;;;;;4430656;32;20225;-57
2021/12/09 11:08:23;;;;;;;255.73;114.00;;;;;;;;;;4431173;32;20326;-57
2021/12/09 11:11:13;;;;;;;228.33;112.77;;;;;;;;;;4433277;32;20216;-57
2021/12/09 11:13:42;;;;;;;219.50;100.67;;;;;;;;;;4434207;32;20241;-57
2021/12/09 11:16:08;;;;;;;195.53;93.40;;;;;;;;;;4434636;32;20255;-56
2021/12/09 11:18:40;;;;;;;189.73;90.60;;;;;;;;;;4434760;32;20292;-58
2021/12/09 11:21:30;;;;;;;169.50;81.47;;;;;;;;;;4434410;32;20239;-57
2021/12/09 11:24:05;;;;;;;155.47;74.50;;;;;;;;;;4433467;32;20209;-57
2021/12/09 11:26:46;;;;;;;168.60;82.30;;;;;;;;;;4429579;32;20285;-58
2021/12/09 11:29:18;;;;;;;169.27;80.50;;;;;;;;;;4434403;32;20268;-57
2021/12/09 11:31:57;;;;;;;166.57;79.53;;;;;;;;;;4434475;32;20282;-58
2021/12/09 11:34:28;;;;;;;173.23;79.83;;;;;;;;;;4434188;32;20217;-58
2021/12/09 11:37:03;;;;;;;163.93;79.83;;;;;;;;;;4433306;32;20251;-57
2021/12/09 11:39:33;;;;;;;161.37;75.97;;;;;;;;;;4434004;32;20239;-57
2021/12/09 11:42:10;;;;;;;159.27;74.30;;;;;;;;;;4433889;32;20213;-57
2021/12/09 11:44:36;;;;;;;163.23;81.10;;;;;;;;;;4433742;32;20240;-57
2021/12/09 11:47:03;;;;;;;172.53;81.53;;;;;;;;;;4434320;32;20619;-57
2021/12/09 11:49:29;;;;;;;168.30;78.53;;;;;;;;;;4433978;32;20633;-57
2021/12/09 11:51:55;;;;;;;165.73;77.80;;;;;;;;;;4434207;32;20307;-57
2021/12/09 11:54:22;;;;;;;163.87;82.87;;;;;;;;;;4433938;32;20729;-58
2021/12/09 12:11:27;;;;;;;182.97;89.37;;;;;;;;;;4434041;32;20228;-57
2021/12/09 12:14:00;;;;;;;211.63;103.83;;;;;;;;;;4422098;32;20248;-57
2021/12/09 12:17:08;;;;;;;208.63;101.90;;;;;;;;;;4420935;32;20236;-57
2021/12/09 12:28:32;;;;;;;201.67;102.63;;;;;;;;;;4433421;32;20573;-56
2021/12/09 12:42:45;;;;;;;226.27;112.43;;;;;;;;;;4417733;32;20434;-56
2021/12/09 12:45:41;;;;;;;224.50;108.83;;;;;;;;;;4417448;32;20355;-57
2021/12/09 12:51:18;;;;;;;206.37;100.23;;;;;;;;;;4400967;32;20229;-57
2021/12/09 12:53:57;;;;;;;209.67;100.03;;;;;;;;;;4417315;32;20237;-56
2021/12/09 12:56:31;;;;;;;190.20;95.37;;;;;;;;;;4413022;32;20229;-56
2021/12/09 12:59:07;;;;;;;205.50;105.90;;;;;;;;;;4416410;32;20699;-58
2021/12/09 13:01:35;;;;;;;238.87;111.47;;;;;;;;;;4417450;32;20248;-56
2021/12/09 13:04:23;;;;;;;224.40;107.23;;;;;;;;;;4417160;32;20355;-57
2021/12/09 13:06:54;;;;;;;236.80;116.10;;;;;;;;;;4430605;32;20241;-57
2021/12/09 13:09:40;;;;;;;241.57;117.77;;;;;;;;;;4432891;32;20243;-56
2021/12/09 13:12:07;;;;;;;220.47;111.47;;;;;;;;;;4432534;32;20266;-56
2021/12/09 13:14:37;;;;;;;207.03;104.20;;;;;;;;;;4432264;32;20217;-57
2021/12/09 13:17:11;;;;;;;220.77;107.10;;;;;;;;;;4432514;32;20695;-55
2021/12/09 13:19:52;;;;;;;198.97;100.03;;;;;;;;;;4432188;32;20251;-57
2021/12/09 13:22:19;;;;;;;187.13;92.10;;;;;;;;;;4432606;32;20209;-56
2021/12/09 13:55:09;;;;;;;160.60;80.13;;;;;;;;;;4431978;32;20625;-56
2021/12/09 13:57:40;;;;;;;166.23;78.63;;;;;;;;;;4431207;32;20884;-56
2021/12/09 14:00:11;;;;;;;199.03;97.83;;;;;;;;;;4432298;32;20272;-57
2021/12/09 14:02:37;;;;;;;205.27;103.13;;;;;;;;;;4417603;32;20267;-58
2021/12/09 14:05:02;;;;;;;160.13;84.20;;;;;;;;;;4430849;32;20728;-56
2021/12/09 14:07:33;;;;;;;176.53;90.53;;;;;;;;;;4424958;32;20294;-56
2021/12/09 14:10:14;;;;;;;155.40;80.23;;;;;;;;;;4410339;32;20353;-56
2021/12/09 14:12:49;;;;;;;160.13;80.03;;;;;;;;;;4419273;32;20207;-56
2021/12/09 14:15:21;;;;;;;153.27;77.47;;;;;;;;;;4431896;32;20303;-56
2021/12/09 14:18:08;;;;;;;148.03;74.87;;;;;;;;;;4432205;32;20282;-56
2021/12/09 14:20:34;;;;;;;149.50;77.53;;;;;;;;;;4432362;32;20303;-56
2021/12/09 14:22:59;;;;;;;154.77;80.37;;;;;;;;;;4432114;32;20212;-58
2021/12/09 14:25:32;;;;;;;156.93;80.73;;;;;;;;;;4432365;32;20237;-56
2021/12/09 14:27:59;;;;;;;167.10;91.17;;;;;;;;;;4432368;32;20626;-55
2021/12/09 14:30:27;;;;;;;178.90;94.27;;;;;;;;;;4432456;32;20252;-56
2021/12/09 14:32:54;;;;;;;161.90;81.57;;;;;;;;;;4418376;32;20739;-57
2021/12/09 14:35:31;;;;;;;306.30;141.53;;;;;;;;;;4432029;32;20228;-64
2021/12/09 14:37:57;;;;;;;458.00;238.03;;;;;;;;;;4432416;32;20205;-56
2021/12/09 14:40:40;;;;;;;438.47;207.43;;;;;;;;;;4432305;32;20233;-58
2021/12/09 14:43:10;;;;;;;183.50;90.33;;;;;;;;;;4432172;32;20677;-57
2021/12/09 14:45:50;;;;;;;144.07;76.57;;;;;;;;;;4419729;32;20287;-56
2021/12/09 14:48:16;;;;;;;143.97;73.53;;;;;;;;;;4435343;32;20674;-58
2021/12/09 14:50:46;;;;;;;147.67;76.27;;;;;;;;;;4435302;32;20553;-58
2021/12/09 14:53:32;;;;;;;171.10;87.30;;;;;;;;;;4435256;32;20239;-58
2021/12/09 14:55:58;;;;;;;167.93;84.77;;;;;;;;;;4434765;32;20233;-57
2021/12/09 14:58:23;;;;;;;210.23;106.87;;;;;;;;;;4420962;32;20412;-57
2021/12/09 15:01:00;;;;;;;224.33;116.33;;;;;;;;;;4434621;32;20296;-58
2021/12/09 15:03:43;;;;;;;328.80;156.80;;;;;;;;;;4434394;32;20263;-57
2021/12/09 15:06:25;;;;;;;243.70;122.73;;;;;;;;;;4425061;32;20356;-57
2021/12/09 15:08:57;;;;;;;220.53;115.37;;;;;;;;;;4434237;32;20362;-57
2021/12/09 15:11:22;;;;;;;230.80;112.30;;;;;;;;;;4434814;32;20228;-56
2021/12/09 15:13:51;;;;;;;361.10;210.93;;;;;;;;;;4418231;32;20714;-57
2021/12/09 15:16:19;;;;;;;195.83;103.50;;;;;;;;;;4419647;32;20352;-57
2021/12/09 15:18:45;;;;;;;198.10;102.40;;;;;;;;;;4419326;32;20277;-57
2021/12/09 15:21:21;;;;;;;216.93;101.70;;;;;;;;;;4419551;32;20386;-57
2021/12/09 15:23:52;;;;;;;252.77;128.43;;;;;;;;;;4405457;32;20233;-57
2021/12/09 15:26:27;;;;;;;224.50;112.17;;;;;;;;;;4419737;32;20225;-57
2021/12/09 15:29:16;;;;;;;308.27;152.03;;;;;;;;;;4419167;32;20248;-57
2021/12/09 15:31:44;;;;;;;220.80;113.10;;;;;;;;;;4417130;32;20466;-56
2021/12/09 15:34:13;;;;;;;211.50;108.93;;;;;;;;;;4430112;32;20220;-57